Temp: 12.2°C   Hum: 87%
  Wind: 0.9mph   Dir: W (276°)
  Rain: 0.0mm Rate: 0.0mm/hr
  Pressure: 1027.0mb

Historic data

Bath Spa Weather Station Historical Data
Daily Summary for July 01, 2022 Units:  Metric    English   Both
Daily Weekly Monthly Yearly Custom
  High: Low: Average:
Temperature: 16.4 °C 10.4 °C 13.8 °C
Dew Point: 12.8 °C 9.3 °C 11.1 °C
Humidity: 94% 70.8% 84%
Wind Speed: 12.7km/h 0km/h 4.7km/h
Wind Gust: 27.4km/h - -
Wind- - WSW
Pressure: 1019.2 hPa 1014.4 hPa -
Precipitation: 0.51 mm    
Historical Graphs
 
 
Tabular Data for July 01, 2022
Time Temperature Dew Point Pressure Wind Wind Speed Wind Gust Humidity Rainfall Rate (Hourly) solar
00:09 11.7 °C 10.5 °C 1014.4 hPa West 0.8 km/h 3.2 km/h 92.4% 0 mm 0 W/m2
00:14 11.7 °C 10.6 °C 1014.4 hPa Calm   3.2 km/h 92.8% 0 mm 0 W/m2
00:19 11.8 °C 10.7 °C 1014.4 hPa West 1.3 km/h 3.2 km/h 93% 0 mm 0 W/m2
00:24 11.8 °C 10.7 °C 1014.4 hPa West 0.6 km/h 3.2 km/h 93% 0 mm 0 W/m2
00:29 11.8 °C 10.7 °C 1014.4 hPa Calm   1.6 km/h 93% 0 mm 0 W/m2
00:34 11.9 °C 10.8 °C 1014.4 hPa Calm   1.6 km/h 93% 0 mm 0 W/m2
00:39 11.9 °C 10.8 °C 1014.4 hPa Calm   1.6 km/h 93% 0 mm 0 W/m2
00:44 11.9 °C 10.8 °C 1014.4 hPa West 0.6 km/h 1.6 km/h 93% 0 mm 0 W/m2
00:49 11.9 °C 10.8 °C 1014.8 hPa West 1.9 km/h 3.2 km/h 93% 0 mm 0 W/m2
00:54 11.9 °C 10.8 °C 1014.8 hPa West 1.9 km/h 6.4 km/h 93% 0 mm 0 W/m2
00:59 11.9 °C 10.8 °C 1014.8 hPa West 0.6 km/h 3.2 km/h 93% 0 mm 0 W/m2
01:04 11.9 °C 10.8 °C 1014.4 hPa West 1.9 km/h 4.8 km/h 93% 0 mm 0 W/m2
01:09 11.9 °C 10.8 °C 1014.8 hPa West 1.4 km/h 6.4 km/h 93% 0 mm 0 W/m2
01:14 11.9 °C 10.8 °C 1014.4 hPa West 1 km/h 4.8 km/h 93% 0 mm 0 W/m2
01:19 11.9 °C 10.8 °C 1014.4 hPa West 2.4 km/h 4.8 km/h 93% 0 mm 0 W/m2
01:24 11.9 °C 10.8 °C 1014.4 hPa West 2.1 km/h 4.8 km/h 93% 0 mm 0 W/m2
01:29 11.9 °C 10.8 °C 1014.4 hPa West 2.9 km/h 8 km/h 93% 0 mm 0 W/m2
01:34 11.9 °C 10.8 °C 1014.4 hPa West 3.2 km/h 4.8 km/h 93% 0 mm 0 W/m2
01:39 11.9 °C 10.8 °C 1014.4 hPa West 2.3 km/h 4.8 km/h 93% 0.25 mm 0 W/m2
01:44 11.9 °C 10.8 °C 1014.4 hPa West 1.1 km/h 4.8 km/h 93% 0.25 mm 0 W/m2
01:49 12 °C 10.9 °C 1014.4 hPa West 1.9 km/h 4.8 km/h 93% 0.25 mm 0 W/m2
01:54 12 °C 10.9 °C 1014.4 hPa West 2.7 km/h 6.4 km/h 93% 0.25 mm 0 W/m2
01:59 12 °C 10.9 °C 1014.4 hPa West 2.1 km/h 3.2 km/h 93% 0.25 mm 0 W/m2
02:04 12 °C 10.9 °C 1014.4 hPa West 0.8 km/h 4.8 km/h 93% 0.25 mm 0 W/m2
02:09 12.1 °C 10.9 °C 1014.4 hPa West 1.3 km/h 3.2 km/h 93% 0.25 mm 0 W/m2
02:14 12.1 °C 11 °C 1014.4 hPa West 0.3 km/h 3.2 km/h 93% 0.25 mm 0 W/m2
02:19 12.1 °C 11 °C 1014.4 hPa West 0.8 km/h 3.2 km/h 93% 0.25 mm 0 W/m2
02:24 12.1 °C 11 °C 1014.4 hPa West 1.4 km/h 3.2 km/h 93% 0.25 mm 0 W/m2
02:29 12.1 °C 10.9 °C 1014.4 hPa West 2.9 km/h 4.8 km/h 93% 0.25 mm 0 W/m2
02:34 12 °C 10.9 °C 1014.4 hPa West 2.7 km/h 6.4 km/h 93% 0.25 mm 0 W/m2
02:39 11.9 °C 10.8 °C 1014.4 hPa SW 4.7 km/h 8 km/h 93% 0 mm 0 W/m2
02:44 11.8 °C 10.7 °C 1014.8 hPa SW 3.5 km/h 6.4 km/h 93% 0 mm 0 W/m2
02:49 11.8 °C 10.7 °C 1014.8 hPa SW 3.2 km/h 6.4 km/h 93% 0 mm 0 W/m2
02:54 11.7 °C 10.6 °C 1014.8 hPa SW 3.7 km/h 6.4 km/h 93% 0 mm 0 W/m2
02:59 11.6 °C 10.5 °C 1014.8 hPa SW 2.4 km/h 6.4 km/h 93% 0 mm 0 W/m2
03:04 11.5 °C 10.4 °C 1014.8 hPa WSW 4 km/h 6.4 km/h 93% 0 mm 0 W/m2
03:09 11.4 °C 10.3 °C 1014.8 hPa West 1 km/h 6.4 km/h 93% 0 mm 0 W/m2
03:14 11.4 °C 10.3 °C 1014.8 hPa West 1.6 km/h 6.4 km/h 93% 0 mm 0 W/m2
03:19 11.4 °C 10.3 °C 1014.8 hPa WSW 3.4 km/h 4.8 km/h 93% 0 mm 0 W/m2
03:24 11.4 °C 10.3 °C 1014.8 hPa WSW 1.3 km/h 4.8 km/h 93% 0 mm 0 W/m2
03:29 11.4 °C 10.3 °C 1014.8 hPa WSW 2.1 km/h 6.4 km/h 93% 0 mm 0 W/m2
03:34 11.3 °C 10.2 °C 1014.8 hPa WSW 2.7 km/h 4.8 km/h 93% 0 mm 0 W/m2
03:39 11.3 °C 10.2 °C 1014.8 hPa WSW 1.9 km/h 4.8 km/h 93% 0 mm 0 W/m2
03:44 11.3 °C 10.2 °C 1014.8 hPa WSW 2.6 km/h 4.8 km/h 93% 0 mm 0 W/m2
03:49 11.3 °C 10.2 °C 1014.8 hPa WNW 4.5 km/h 9.7 km/h 93% 0 mm 0 W/m2
03:54 11.2 °C 10.1 °C 1014.8 hPa WNW 2.1 km/h 6.4 km/h 93% 0 mm 0 W/m2
03:59 11.2 °C 10.1 °C 1014.8 hPa WNW 2.1 km/h 3.2 km/h 93% 0 mm 0 W/m2
04:04 11.2 °C 10.1 °C 1015.1 hPa WNW 3.7 km/h 6.4 km/h 93% 0 mm 0 W/m2
04:09 11.1 °C 10 °C 1015.1 hPa WNW 2.6 km/h 6.4 km/h 93% 0 mm 0 W/m2
04:14 11.1 °C 10 °C 1015.1 hPa WNW 2.6 km/h 6.4 km/h 93% 0 mm 0 W/m2
04:19 11.1 °C 10 °C 1015.1 hPa WNW 0.8 km/h 3.2 km/h 93% 0 mm 0 W/m2
04:24 11.1 °C 10 °C 1015.1 hPa West 3.2 km/h 9.7 km/h 93% 0 mm 0 W/m2
04:29 11 °C 9.9 °C 1015.1 hPa West 2.6 km/h 4.8 km/h 93% 0 mm 0 W/m2
04:34 10.9 °C 9.8 °C 1015.1 hPa West 2.1 km/h 4.8 km/h 93% 0 mm 0 W/m2
04:39 10.9 °C 9.8 °C 1015.1 hPa West 0.8 km/h 3.2 km/h 93% 0 mm 0 W/m2
04:44 10.9 °C 9.8 °C 1015.1 hPa West 1.9 km/h 6.4 km/h 93% 0 mm 0 W/m2
04:49 10.8 °C 9.7 °C 1015.1 hPa West 0.3 km/h 4.8 km/h 93% 0 mm 0 W/m2
04:54 10.8 °C 9.7 °C 1015.1 hPa West 2.3 km/h 4.8 km/h 93% 0 mm 0 W/m2
04:59 10.8 °C 9.7 °C 1015.1 hPa West 1.4 km/h 3.2 km/h 93% 0 mm 0 W/m2
05:04 10.7 °C 9.6 °C 1015.1 hPa West 0.6 km/h 3.2 km/h 93% 0 mm 0 W/m2
05:09 10.7 °C 9.6 °C 1015.1 hPa Calm   3.2 km/h 93% 0 mm 5 W/m2
05:14 10.7 °C 9.6 °C 1015.1 hPa Calm   1.6 km/h 93.2% 0 mm 9 W/m2
05:19 10.6 °C 9.4 °C 1015.1 hPa West 1.9 km/h 3.2 km/h 93% 0 mm 11 W/m2
05:24 10.4 °C 9.3 °C 1015.5 hPa West 1.3 km/h 3.2 km/h 93% 0 mm 12 W/m2
05:29 10.4 °C 9.3 °C 1015.5 hPa West 2.9 km/h 3.2 km/h 93% 0 mm 18 W/m2
05:34 10.4 °C 9.3 °C 1015.5 hPa West 2.7 km/h 4.8 km/h 93% 0 mm 19 W/m2
05:39 10.5 °C 9.6 °C 1015.5 hPa West 1.9 km/h 4.8 km/h 94% 0 mm 26 W/m2
05:44 10.5 °C 9.6 °C 1015.5 hPa West 1.4 km/h 3.2 km/h 94% 0 mm 37 W/m2
05:49 10.6 °C 9.7 °C 1015.5 hPa West 2.1 km/h 4.8 km/h 94% 0 mm 37 W/m2
05:54 10.6 °C 9.7 °C 1015.5 hPa West 2.3 km/h 4.8 km/h 94% 0 mm 44 W/m2
05:59 10.7 °C 9.8 °C 1015.5 hPa West 1.6 km/h 4.8 km/h 94% 0 mm 47 W/m2
06:04 10.7 °C 9.8 °C 1015.5 hPa West 0.3 km/h 3.2 km/h 94% 0 mm 58 W/m2
06:09 10.8 °C 9.9 °C 1015.5 hPa West 1.6 km/h 3.2 km/h 94% 0 mm 84 W/m2
06:14 10.9 °C 10 °C 1015.5 hPa Calm   3.2 km/h 94% 0 mm 84 W/m2
06:19 11 °C 10.1 °C 1015.5 hPa West 0.6 km/h 3.2 km/h 94% 0 mm 93 W/m2
06:24 11.2 °C 10.3 °C 1015.5 hPa Calm   3.2 km/h 94% 0 mm 83 W/m2
06:29 11.3 °C 10.3 °C 1015.8 hPa Calm     94% 0 mm 72 W/m2
06:34 11.3 °C 10.4 °C 1015.8 hPa West 1.8 km/h 3.2 km/h 94% 0 mm 93 W/m2
06:39 11.5 °C 10.6 °C 1015.8 hPa West 1.1 km/h 3.2 km/h 94% 0 mm 107 W/m2
06:44 11.6 °C 10.7 °C 1015.8 hPa Calm   1.6 km/h 94% 0 mm 98 W/m2
06:49 11.6 °C 10.7 °C 1015.8 hPa Calm   1.6 km/h 94% 0 mm 98 W/m2
06:54 11.6 °C 10.7 °C 1015.8 hPa West 1.4 km/h 3.2 km/h 94% 0 mm 95 W/m2
06:59 11.7 °C 10.8 °C 1015.8 hPa West 0.6 km/h 3.2 km/h 94% 0 mm 95 W/m2
07:04 11.8 °C 10.9 °C 1015.8 hPa West 0.6 km/h 3.2 km/h 94% 0 mm 111 W/m2
07:09 11.9 °C 11 °C 1015.8 hPa West 0.6 km/h 4.8 km/h 94% 0 mm 139 W/m2
07:14 11.9 °C 11.1 °C 1016.1 hPa West 1.3 km/h 3.2 km/h 94% 0 mm 144 W/m2
07:19 12.2 °C 11.3 °C 1016.1 hPa West 3.1 km/h 6.4 km/h 94% 0 mm 121 W/m2
07:24 12.3 °C 11.4 °C 1016.1 hPa West 2.9 km/h 6.4 km/h 94% 0 mm 105 W/m2
07:29 12.4 °C 11.6 °C 1016.1 hPa West 2.1 km/h 4.8 km/h 94% 0 mm 93 W/m2
07:34 12.5 °C 11.6 °C 1016.1 hPa West 4.2 km/h 9.7 km/h 94% 0 mm 83 W/m2
07:39 12.5 °C 11.6 °C 1016.1 hPa West 2.6 km/h 6.4 km/h 94% 0 mm 100 W/m2
07:44 12.6 °C 11.7 °C 1016.1 hPa West 5.1 km/h 11.3 km/h 94% 0.25 mm 158 W/m2
07:49 12.6 °C 11.7 °C 1016.1 hPa West 3.9 km/h 8 km/h 94% 0.25 mm 179 W/m2
07:54 12.7 °C 11.8 °C 1016.1 hPa West 3.9 km/h 6.4 km/h 94% 0.25 mm 176 W/m2
07:59 12.7 °C 11.8 °C 1016.1 hPa West 4.5 km/h 9.7 km/h 94% 0.25 mm 151 W/m2
08:04 12.7 °C 11.7 °C 1016.1 hPa West 7.7 km/h 11.3 km/h 94% 0.25 mm 142 W/m2
08:09 12.7 °C 11.8 °C 1016.1 hPa West 4.3 km/h 14.5 km/h 94% 0.25 mm 137 W/m2
08:14 12.7 °C 11.8 °C 1016.1 hPa West 5.3 km/h 11.3 km/h 94% 0.51 mm 137 W/m2
08:19 12.7 °C 11.8 °C 1016.1 hPa West 4.7 km/h 11.3 km/h 94% 0.51 mm 121 W/m2
08:24 12.7 °C 11.8 °C 1016.1 hPa WSW 6 km/h 11.3 km/h 94% 0.51 mm 125 W/m2
08:29 12.8 °C 11.9 °C 1016.1 hPa WSW 2.7 km/h 8 km/h 94% 0.51 mm 128 W/m2
08:34 12.8 °C 11.9 °C 1016.1 hPa WSW 4.8 km/h 8 km/h 94% 0.51 mm 120 W/m2
08:39 12.8 °C 11.9 °C 1016.1 hPa West 5.5 km/h 9.7 km/h 94% 0.51 mm 123 W/m2
08:44 12.8 °C 11.9 °C 1016.5 hPa West 5.3 km/h 8 km/h 94% 0.51 mm 137 W/m2
08:49 12.8 °C 11.9 °C 1016.5 hPa WSW 5.1 km/h 12.9 km/h 94% 0.25 mm 135 W/m2
08:54 12.8 °C 11.9 °C 1016.5 hPa WSW 6 km/h 11.3 km/h 94% 0.25 mm 125 W/m2
08:59 12.8 °C 11.8 °C 1016.5 hPa WSW 4 km/h 8 km/h 93.4% 0.25 mm 165 W/m2
09:04 12.9 °C 11.8 °C 1016.5 hPa SW 6.4 km/h 11.3 km/h 93% 0.25 mm 181 W/m2
09:09 12.9 °C 11.8 °C 1016.5 hPa WSW 4.5 km/h 11.3 km/h 93% 0.25 mm 202 W/m2
09:14 13 °C 11.9 °C 1016.5 hPa WSW 6.4 km/h 12.9 km/h 93% 0.25 mm 204 W/m2
09:19 13.1 °C 12 °C 1016.5 hPa WSW 7.1 km/h 9.7 km/h 93% 0 mm 200 W/m2
09:24 13.3 °C 12.2 °C 1016.5 hPa WSW 4.2 km/h 8 km/h 93% 0 mm 227 W/m2
09:29 13.4 °C 12.3 °C 1016.5 hPa West 4 km/h 9.7 km/h 93% 0 mm 246 W/m2
09:34 13.6 °C 12.4 °C 1016.5 hPa WSW 4 km/h 8 km/h 92.8% 0 mm 234 W/m2
09:39 13.7 °C 12.5 °C 1016.5 hPa WSW 4 km/h 11.3 km/h 92.8% 0 mm 229 W/m2
09:44 13.7 °C 12.4 °C 1016.5 hPa West 4.3 km/h 11.3 km/h 92% 0 mm 202 W/m2
09:49 13.8 °C 12.6 °C 1016.8 hPa WSW 6.4 km/h 12.9 km/h 92% 0 mm 257 W/m2
09:54 13.9 °C 12.6 °C 1016.8 hPa WSW 4.5 km/h 12.9 km/h 92% 0 mm 253 W/m2
09:59 14.1 °C 12.8 °C 1016.8 hPa West 9.7 km/h 16.1 km/h 91.6% 0 mm 248 W/m2
10:04 14.2 °C 12.8 °C 1016.8 hPa West 7.1 km/h 17.7 km/h 91% 0 mm 269 W/m2
10:09 14.3 °C 12.8 °C 1016.8 hPa West 7.2 km/h 12.9 km/h 90.4% 0 mm 295 W/m2
10:14 14.3 °C 12.6 °C 1016.8 hPa West 7.2 km/h 14.5 km/h 89.4% 0 mm 313 W/m2
10:19 14.4 °C 12.6 °C 1016.8 hPa West 8.9 km/h 19.3 km/h 88.6% 0 mm 359 W/m2
10:24 14.7 °C 12.6 °C 1016.8 hPa West 7.2 km/h 17.7 km/h 87.4% 0 mm 461 W/m2
10:29 14.9 °C 12.6 °C 1016.8 hPa WSW 12.7 km/h 19.3 km/h 86% 0 mm 603 W/m2
10:34 15.1 °C 12.3 °C 1016.8 hPa West 8.5 km/h 16.1 km/h 83.8% 0 mm 636 W/m2
10:39 15.3 °C 12.2 °C 1016.8 hPa West 10 km/h 17.7 km/h 82% 0 mm 561 W/m2
10:44 15.5 °C 12.3 °C 1016.8 hPa WSW 6 km/h 14.5 km/h 81% 0 mm 550 W/m2
10:49 15.7 °C 12.2 °C 1016.8 hPa West 4.5 km/h 16.1 km/h 79.4% 0 mm 506 W/m2
10:54 15.7 °C 11.9 °C 1016.8 hPa West 9.5 km/h 22.5 km/h 78.2% 0 mm 255 W/m2
10:59 15.7 °C 11.7 °C 1016.8 hPa West 10 km/h 20.9 km/h 77% 0 mm 260 W/m2
11:04 15.4 °C 11.6 °C 1016.8 hPa WNW 10 km/h 20.9 km/h 77.8% 0 mm 339 W/m2
11:09 15.7 °C 11.8 °C 1016.8 hPa West 8.7 km/h 14.5 km/h 77.4% 0 mm 380 W/m2
11:14 15.7 °C 11.4 °C 1016.8 hPa West 8.7 km/h 17.7 km/h 75.4% 0 mm 260 W/m2
11:19 15.7 °C 11.4 °C 1016.8 hPa WNW 8.7 km/h 14.5 km/h 75.8% 0 mm 891 W/m2
11:24 16.1 °C 12 °C 1016.8 hPa WNW 10.9 km/h 20.9 km/h 76.8% 0 mm 1079 W/m2
11:29 16.3 °C 12 °C 1016.8 hPa West 9.2 km/h 20.9 km/h 75.6% 0 mm 1079 W/m2
11:34 16.3 °C 11.8 °C 1016.8 hPa West 8.5 km/h 22.5 km/h 74.4% 0 mm 483 W/m2
11:39 16.4 °C 11.8 °C 1016.8 hPa West 7.9 km/h 20.9 km/h 74% 0 mm 455 W/m2
11:44 16.2 °C 11.2 °C 1016.8 hPa West 12.6 km/h 20.9 km/h 72.4% 0 mm 345 W/m2
11:49 16 °C 11.1 °C 1016.8 hPa West 10 km/h 16.1 km/h 72.4% 0 mm 223 W/m2
11:54 15.8 °C 10.8 °C 1016.8 hPa WSW 9.7 km/h 16.1 km/h 72% 0 mm 156 W/m2
11:59 15.7 °C 10.9 °C 1017.2 hPa West 10.8 km/h 16.1 km/h 72.8% 0 mm 132 W/m2
12:04 15.5 °C 10.7 °C 1017.2 hPa West 9 km/h 14.5 km/h 73% 0 mm 197 W/m2
12:09 15.4 °C 10.6 °C 1016.8 hPa West 7.1 km/h 16.1 km/h 73% 0 mm 234 W/m2
12:14 15.6 °C 10.6 °C 1017.2 hPa SW 7.6 km/h 12.9 km/h 72.3% 0 mm 211 W/m2
12:19 15.6 °C 10.6 °C 1017.2 hPa West 8 km/h 14.5 km/h 72% 0 mm 227 W/m2
12:24 15.6 °C 10.4 °C 1017.2 hPa West 4.7 km/h 14.5 km/h 71.2% 0 mm 292 W/m2
12:29 15.7 °C 10.6 °C 1017.2 hPa WSW 6.4 km/h 11.3 km/h 71.4% 0 mm 299 W/m2
12:34 15.8 °C 10.8 °C 1017.2 hPa West 5.3 km/h 9.7 km/h 71.8% 0 mm 223 W/m2
12:39 15.8 °C 10.7 °C 1017.2 hPa WSW 7.2 km/h 12.9 km/h 71.4% 0 mm 167 W/m2
12:44 15.8 °C 10.7 °C 1017.2 hPa SW 6.6 km/h 11.3 km/h 71.4% 0 mm 118 W/m2
12:49 15.8 °C 10.7 °C 1017.2 hPa WSW 6.4 km/h 9.7 km/h 71.8% 0 mm 93 W/m2
12:54 15.8 °C 10.8 °C 1017.2 hPa WSW 6.3 km/h 14.5 km/h 72% 0 mm 77 W/m2
12:59 15.7 °C 10.8 °C 1017.2 hPa WSW 5.8 km/h 11.3 km/h 72.6% 0 mm 114 W/m2
13:04 15.6 °C 10.8 °C 1017.2 hPa SW 4.8 km/h 9.7 km/h 73% 0 mm 127 W/m2
13:09 15.4 °C 10.7 °C 1017.2 hPa SW 6.4 km/h 11.3 km/h 73.2% 0 mm 139 W/m2
13:14 15.4 °C 10.6 °C 1017.2 hPa WSW 5.3 km/h 9.7 km/h 72.6% 0 mm 149 W/m2
13:19 15.6 °C 10.5 °C 1017.2 hPa SW 5.5 km/h 9.7 km/h 71.6% 0 mm 199 W/m2
13:24 15.7 °C 10.6 °C 1017.2 hPa SW 2.7 km/h 6.4 km/h 71.5% 0 mm 186 W/m2
13:29 15.8 °C 10.8 °C 1017.2 hPa WSW 5.8 km/h 9.7 km/h 72% 0 mm 156 W/m2
13:34 15.7 °C 10.8 °C 1017.2 hPa WNW 9 km/h 16.1 km/h 72.6% 0 mm 107 W/m2
13:39 15.4 °C 10.8 °C 1017.2 hPa WNW 8.2 km/h 12.9 km/h 74.2% 0 mm 104 W/m2
13:44 15.2 °C 10.9 °C 1017.5 hPa WNW 12.6 km/h 27.4 km/h 75.4% 0 mm 70 W/m2
13:49 14.9 °C 10.8 °C 1017.5 hPa West 11.3 km/h 25.7 km/h 76% 0 mm 79 W/m2
13:54 14.6 °C 10.7 °C 1017.5 hPa WNW 10.8 km/h 22.5 km/h 77.2% 0 mm 102 W/m2
13:59 14.2 °C 10.4 °C 1017.5 hPa West 7.6 km/h 20.9 km/h 78.4% 0 mm 165 W/m2
14:04 14 °C 10.6 °C 1017.8 hPa West 8.7 km/h 16.1 km/h 79.8% 0 mm 221 W/m2
14:09 14.1 °C 10.8 °C 1017.8 hPa WSW 5.8 km/h 11.3 km/h 80.8% 0 mm 346 W/m2
14:14 14.2 °C 11 °C 1017.8 hPa WSW 5.8 km/h 11.3 km/h 81% 0 mm 366 W/m2
14:19 14.4 °C 11.4 °C 1017.8 hPa West 6.4 km/h 11.3 km/h 82% 0 mm 341 W/m2
14:24 14.6 °C 11.3 °C 1017.5 hPa West 6.8 km/h 16.1 km/h 80.6% 0 mm 171 W/m2
14:29 14.6 °C 11.2 °C 1017.5 hPa West 5.1 km/h 12.9 km/h 80% 0 mm 118 W/m2
14:34 14.7 °C 11.2 °C 1017.5 hPa WSW 5.3 km/h 9.7 km/h 79.6% 0 mm 113 W/m2
14:39 14.7 °C 11.1 °C 1017.8 hPa SW 4.7 km/h 11.3 km/h 79% 0 mm 148 W/m2
14:44 14.8 °C 11.2 °C 1017.8 hPa SW 4.8 km/h 8 km/h 78.8% 0 mm 178 W/m2
14:49 14.9 °C 11.3 °C 1017.8 hPa SW 4.2 km/h 9.7 km/h 79% 0 mm 188 W/m2
14:54 14.9 °C 11.3 °C 1017.5 hPa SSW 5.1 km/h 11.3 km/h 79% 0 mm 243 W/m2
14:59 14.8 °C 11.2 °C 1017.8 hPa SSW 5.1 km/h 11.3 km/h 79% 0 mm 322 W/m2
15:04 14.8 °C 11.2 °C 1017.5 hPa SSW 6 km/h 11.3 km/h 79% 0 mm 352 W/m2
15:09 14.8 °C 11.2 °C 1017.5 hPa South 6 km/h 12.9 km/h 78.6% 0 mm 380 W/m2
15:14 14.9 °C 11.1 °C 1017.8 hPa SSW 5.8 km/h 12.9 km/h 78% 0 mm 403 W/m2
15:19 15.2 °C 11.3 °C 1017.8 hPa South 6.1 km/h 9.7 km/h 78% 0 mm 559 W/m2
15:24 15.3 °C 11.6 °C 1017.8 hPa SW 4.3 km/h 9.7 km/h 78% 0 mm 895 W/m2
15:29 15.9 °C 12.1 °C 1017.8 hPa SSW 4 km/h 9.7 km/h 77.8% 0 mm 956 W/m2
15:34 16.2 °C 12.1 °C 1017.8 hPa South 5.3 km/h 9.7 km/h 76.8% 0 mm 338 W/m2
15:39 16.2 °C 12 °C 1017.5 hPa South 5.6 km/h 17.7 km/h 75.8% 0 mm 796 W/m2
15:44 16.4 °C 11.9 °C 1017.5 hPa SSW 8 km/h 17.7 km/h 74.6% 0 mm 796 W/m2
15:49 16.3 °C 11 °C 1017.5 hPa SW 10 km/h 17.7 km/h 70.8% 0 mm 338 W/m2
15:54 16.2 °C 10.9 °C 1017.5 hPa SSW 6.8 km/h 16.1 km/h 71% 0 mm 144 W/m2
15:59 16.2 °C 11.1 °C 1017.5 hPa SW 10.8 km/h 16.1 km/h 72% 0 mm 74 W/m2
16:04 16.2 °C 11.3 °C 1017.5 hPa SW 5.6 km/h 11.3 km/h 72.6% 0 mm 39 W/m2
16:09 16.1 °C 11.4 °C 1017.5 hPa West 5.6 km/h 16.1 km/h 73.6% 0 mm 30 W/m2
16:14 15.9 °C 11.6 °C 1017.8 hPa West 5.5 km/h 11.3 km/h 75.6% 0 mm 65 W/m2
16:19 15.8 °C 11.7 °C 1017.8 hPa WSW 3.7 km/h 9.7 km/h 76.8% 0 mm 86 W/m2
16:24 15.7 °C 11.7 °C 1017.8 hPa SW 6.9 km/h 14.5 km/h 77% 0 mm 111 W/m2
16:29 15.5 °C 11.5 °C 1017.8 hPa WSW 5.3 km/h 14.5 km/h 77% 0 mm 214 W/m2
16:34 15.4 °C 11.6 °C 1017.8 hPa SW 5.8 km/h 9.7 km/h 77.8% 0 mm 385 W/m2
16:39 15.7 °C 11.8 °C 1017.8 hPa SW 4.7 km/h 9.7 km/h 78% 0 mm 424 W/m2
16:44 15.8 °C 12.2 °C 1017.8 hPa SW 4 km/h 9.7 km/h 78.8% 0 mm 424 W/m2
16:49 15.9 °C 12.1 °C 1017.8 hPa South 5.8 km/h 9.7 km/h 77.4% 0 mm 835 W/m2
16:53 16 °C 11.9 °C 1017.8 hPa SW 7.2 km/h 12.9 km/h 76.8% 0 mm 225 W/m2
16:59 16.1 °C 11.8 °C 1017.8 hPa SW 6 km/h 12.9 km/h 76% 0 mm 185 W/m2
17:04 16.2 °C 12 °C 1017.8 hPa SSW 3.4 km/h 11.3 km/h 76% 0 mm 211 W/m2
17:09 16.3 °C 12.1 °C 1017.8 hPa SSW 7.2 km/h 11.3 km/h 75.8% 0 mm 216 W/m2
17:14 16.3 °C 11.9 °C 1017.8 hPa SW 6.6 km/h 11.3 km/h 75% 0 mm 155 W/m2
17:19 16.3 °C 11.8 °C 1017.8 hPa SSW 7.9 km/h 14.5 km/h 74.2% 0 mm 137 W/m2
17:24 16.2 °C 11.6 °C 1017.8 hPa SSW 6 km/h 14.5 km/h 74% 0 mm 118 W/m2
17:29 16.2 °C 11.6 °C 1017.8 hPa SSW 6.4 km/h 12.9 km/h 74% 0 mm 232 W/m2
17:34 16.2 °C 11.6 °C 1017.8 hPa SSW 7.9 km/h 17.7 km/h 74% 0 mm 185 W/m2
17:39 16.1 °C 11.5 °C 1017.8 hPa SW 10.1 km/h 17.7 km/h 74% 0 mm 91 W/m2
17:44 15.9 °C 11.5 °C 1017.8 hPa SW 7.1 km/h 14.5 km/h 74.8% 0 mm 127 W/m2
17:49 16 °C 11.7 °C 1017.8 hPa WSW 7.7 km/h 14.5 km/h 75.6% 0 mm 139 W/m2
17:54 16.1 °C 11.8 °C 1017.8 hPa West 6.9 km/h 12.9 km/h 75.6% 0 mm 142 W/m2
17:59 16.1 °C 11.5 °C 1017.8 hPa WSW 11.3 km/h 19.3 km/h 74.2% 0 mm 174 W/m2
18:04 16 °C 11.2 °C 1017.8 hPa West 8.7 km/h 17.7 km/h 72.8% 0 mm 195 W/m2
18:09 16 °C 11.1 °C 1017.8 hPa West 10.3 km/h 17.7 km/h 72.2% 0 mm 193 W/m2
18:14 16.1 °C 11.2 °C 1017.8 hPa West 6.6 km/h 16.1 km/h 72.6% 0 mm 176 W/m2
18:19 16.1 °C 11.3 °C 1017.8 hPa West 6.6 km/h 14.5 km/h 73% 0 mm 151 W/m2
18:23 16.1 °C 11.3 °C 1017.8 hPa West 8.4 km/h 19.3 km/h 73% 0 mm 144 W/m2
18:29 15.9 °C 11.1 °C 1017.8 hPa West 9.5 km/h 16.1 km/h 73% 0 mm 120 W/m2
18:34 15.8 °C 11 °C 1017.8 hPa WSW 6.3 km/h 12.9 km/h 73% 0 mm 127 W/m2
18:39 15.8 °C 11 °C 1017.8 hPa WSW 6.6 km/h 11.3 km/h 73% 0 mm 128 W/m2
18:44 15.8 °C 11 °C 1017.8 hPa West 8.2 km/h 14.5 km/h 73% 0 mm 116 W/m2
18:49 15.8 °C 11 °C 1017.8 hPa WSW 5 km/h 12.9 km/h 73% 0 mm 139 W/m2
18:54 15.8 °C 11.1 °C 1018.2 hPa WNW 7.4 km/h 12.9 km/h 73.4% 0 mm 146 W/m2
18:59 15.7 °C 11.1 °C 1018.2 hPa West 4.8 km/h 14.5 km/h 74% 0 mm 135 W/m2
19:04 15.8 °C 11.2 °C 1018.2 hPa WSW 6 km/h 11.3 km/h 74% 0 mm 105 W/m2
19:09 15.7 °C 11.1 °C 1018.2 hPa WSW 5.5 km/h 11.3 km/h 74% 0 mm 118 W/m2
19:14 15.7 °C 11.1 °C 1018.2 hPa WSW 6.1 km/h 12.9 km/h 74% 0 mm 98 W/m2
19:19 15.7 °C 11.1 °C 1018.2 hPa WSW 6.4 km/h 12.9 km/h 74% 0 mm 72 W/m2
19:24 15.7 °C 11.1 °C 1018.2 hPa West 5.3 km/h 12.9 km/h 74% 0 mm 139 W/m2
19:29 15.8 °C 11.2 °C 1018.2 hPa WSW 8 km/h 16.1 km/h 74.4% 0 mm 128 W/m2
19:34 15.7 °C 11.2 °C 1018.2 hPa WSW 6 km/h 11.3 km/h 74.8% 0 mm 111 W/m2
19:39 15.6 °C 11.2 °C 1018.2 hPa WSW 8.9 km/h 12.9 km/h 75% 0 mm 144 W/m2
19:44 15.4 °C 11.2 °C 1018.2 hPa WSW 6 km/h 12.9 km/h 75.4% 0 mm 105 W/m2
19:49 15.4 °C 11.2 °C 1018.2 hPa SW 5.3 km/h 9.7 km/h 76% 0 mm 105 W/m2
19:54 15.4 °C 11.2 °C 1018.5 hPa SW 6.6 km/h 11.3 km/h 76% 0 mm 100 W/m2
19:59 15.4 °C 11.2 °C 1018.5 hPa WSW 7.1 km/h 9.7 km/h 76% 0 mm 88 W/m2
20:04 15.4 °C 11.2 °C 1018.5 hPa West 5.8 km/h 11.3 km/h 76% 0 mm 72 W/m2
20:09 15.4 °C 11.2 °C 1018.5 hPa WSW 4.5 km/h 8 km/h 76% 0 mm 67 W/m2
20:14 15.3 °C 11.3 °C 1018.5 hPa WSW 4.5 km/h 8 km/h 76.8% 0 mm 58 W/m2
20:19 15.3 °C 11.3 °C 1018.5 hPa WSW 1.6 km/h 8 km/h 77% 0 mm 54 W/m2
20:24 15.3 °C 11.3 °C 1018.5 hPa SW 3.4 km/h 9.7 km/h 77% 0 mm 49 W/m2
20:29 15.3 °C 11.3 °C 1018.5 hPa SW 3.2 km/h 8 km/h 77% 0 mm 44 W/m2
20:34 15.3 °C 11.3 °C 1018.5 hPa SW 3.2 km/h 6.4 km/h 77% 0 mm 42 W/m2
20:39 15.2 °C 11.3 °C 1018.5 hPa SW 3.2 km/h 6.4 km/h 77.8% 0 mm 33 W/m2
20:44 15.2 °C 11.4 °C 1018.5 hPa SW 2.3 km/h 6.4 km/h 78% 0 mm 28 W/m2
20:49 15.2 °C 11.4 °C 1018.5 hPa SW 3.9 km/h 8 km/h 78% 0 mm 30 W/m2
20:54 15.2 °C 11.3 °C 1018.5 hPa SW 5.3 km/h 11.3 km/h 78% 0 mm 23 W/m2
20:59 15.1 °C 11.3 °C 1018.5 hPa SW 4.3 km/h 6.4 km/h 78% 0 mm 19 W/m2
21:04 15.1 °C 11.3 °C 1018.5 hPa SW 2.6 km/h 4.8 km/h 78% 0 mm 16 W/m2
21:09 15 °C 11.2 °C 1018.5 hPa SW 2.6 km/h 3.2 km/h 78% 0 mm 12 W/m2
21:14 14.9 °C 11.1 °C 1018.5 hPa SW 0.6 km/h 4.8 km/h 78% 0 mm 11 W/m2
21:19 14.8 °C 11.1 °C 1018.5 hPa SW 3.1 km/h 6.4 km/h 78% 0 mm 7 W/m2
21:24 14.8 °C 11 °C 1018.5 hPa SW 3.4 km/h 6.4 km/h 78% 0 mm 5 W/m2
21:29 14.7 °C 11 °C 1018.5 hPa SW 5.1 km/h 9.7 km/h 78.2% 0 mm 5 W/m2
21:34 14.7 °C 11 °C 1018.5 hPa SW 4.5 km/h 8 km/h 78.4% 0 mm 0 W/m2
21:39 14.7 °C 11.1 °C 1018.5 hPa SW 3.9 km/h 6.4 km/h 79% 0 mm 0 W/m2
21:44 14.7 °C 11.1 °C 1018.5 hPa SW 1.4 km/h 6.4 km/h 79% 0 mm 0 W/m2
21:49 14.6 °C 11.1 °C 1018.5 hPa SSW 5.1 km/h 9.7 km/h 79.4% 0 mm 0 W/m2
21:54 14.5 °C 11.1 °C 1018.5 hPa SW 5.5 km/h 11.3 km/h 80% 0 mm 0 W/m2
21:59 14.3 °C 11.1 °C 1018.8 hPa SW 5.3 km/h 9.7 km/h 80.6% 0 mm 0 W/m2
22:04 14.2 °C 11.1 °C 1018.8 hPa SW 4.3 km/h 11.3 km/h 81% 0 mm 0 W/m2
22:09 14.1 °C 11.1 °C 1018.8 hPa SW 2.6 km/h 8 km/h 81.6% 0 mm 0 W/m2
22:14 14.1 °C 11.1 °C 1018.8 hPa SW 4 km/h 9.7 km/h 82% 0 mm 0 W/m2
22:19 13.9 °C 11.1 °C 1018.8 hPa SSW 2.9 km/h 9.7 km/h 82.6% 0 mm 0 W/m2
22:24 13.8 °C 11 °C 1018.8 hPa SSW 3.5 km/h 9.7 km/h 82.8% 0 mm 0 W/m2
22:29 13.8 °C 11 °C 1018.8 hPa SSW 3.4 km/h 6.4 km/h 83% 0 mm 0 W/m2
22:34 13.7 °C 10.8 °C 1018.8 hPa SW 4.8 km/h 11.3 km/h 83% 0 mm 0 W/m2
22:39 13.6 °C 10.8 °C 1018.8 hPa SW 3.1 km/h 9.7 km/h 83% 0 mm 0 W/m2
22:44 13.4 °C 10.8 °C 1018.8 hPa SW 3.4 km/h 9.7 km/h 84% 0 mm 0 W/m2
22:49 13.3 °C 10.7 °C 1018.8 hPa SW 5.1 km/h 6.4 km/h 84% 0 mm 0 W/m2
22:54 13.3 °C 10.7 °C 1018.8 hPa SW 2.9 km/h 6.4 km/h 84% 0 mm 0 W/m2
22:59 13.2 °C 10.6 °C 1018.8 hPa SW 2.1 km/h 8 km/h 84% 0 mm 0 W/m2
23:04 13.1 °C 10.5 °C 1018.8 hPa WSW 2.9 km/h 8 km/h 84.2% 0 mm 0 W/m2
23:09 13.1 °C 10.6 °C 1019.2 hPa West 5 km/h 9.7 km/h 85% 0 mm 0 W/m2
23:14 13 °C 10.5 °C 1019.2 hPa WSW 5.5 km/h 12.9 km/h 85% 0 mm 0 W/m2
23:19 13 °C 10.5 °C 1019.2 hPa WSW 3.9 km/h 11.3 km/h 85% 0 mm 0 W/m2
23:24 12.9 °C 10.4 °C 1019.2 hPa SW 4.7 km/h 9.7 km/h 85% 0 mm 0 W/m2
23:29 12.9 °C 10.4 °C 1019.2 hPa SW 6.4 km/h 9.7 km/h 85% 0 mm 0 W/m2
23:34 12.8 °C 10.3 °C 1019.2 hPa SW 4.3 km/h 11.3 km/h 85% 0 mm 0 W/m2
23:39 12.8 °C 10.3 °C 1019.2 hPa SW 5.8 km/h 12.9 km/h 85% 0 mm 0 W/m2
23:44 12.8 °C 10.3 °C 1019.2 hPa SW 6.6 km/h 11.3 km/h 85% 0 mm 0 W/m2
23:49 12.8 °C 10.3 °C 1019.2 hPa SW 7.2 km/h 14.5 km/h 84.8% 0 mm 0 W/m2
23:54 12.7 °C 10.1 °C 1019.2 hPa SW 5 km/h 11.3 km/h 84% 0 mm 0 W/m2
23:59 12.7 °C 10.1 °C 1019.2 hPa SW 7.7 km/h 14.5 km/h 84% 0 mm 0 W/m2
Bath Spa Weather
Compliments of Weather Underground - 2 mb